createdAt,value
2018-05-07T00:01:50.712Z,94.70
2018-05-07T00:04:20.297Z,94.80
2018-05-07T00:06:48.480Z,95.10
2018-05-07T00:09:16.687Z,95.00
2018-05-07T00:11:44.966Z,95.30
2018-05-07T00:14:13.836Z,95.10
2018-05-07T00:16:41.957Z,95.10
2018-05-07T00:19:10.881Z,95.60
2018-05-07T00:21:39.030Z,95.50
2018-05-07T00:24:07.139Z,95.70
2018-05-07T00:26:35.382Z,95.90
2018-05-07T00:29:03.537Z,96.10
2018-05-07T00:31:32.904Z,96.20
2018-05-07T00:34:02.406Z,96.20
2018-05-07T00:36:30.567Z,96.40
2018-05-07T00:38:58.675Z,96.50
2018-05-07T00:41:27.572Z,96.60
2018-05-07T00:43:56.445Z,96.80
2018-05-07T00:46:25.526Z,96.80
2018-05-07T00:48:53.628Z,96.80
2018-05-07T00:51:22.658Z,97.20
2018-05-07T00:53:52.050Z,96.80
2018-05-07T00:56:20.175Z,96.70
2018-05-07T00:58:49.636Z,96.70
2018-05-07T01:01:17.780Z,96.50
2018-05-07T01:03:46.663Z,96.90
2018-05-07T01:06:16.340Z,96.90
2018-05-07T01:08:44.438Z,96.90
2018-05-07T01:11:13.390Z,97.60
2018-05-07T01:13:41.508Z,97.30
2018-05-07T01:16:09.639Z,97.30
2018-05-07T01:18:37.738Z,97.30
2018-05-07T01:21:07.445Z,97.30
2018-05-07T01:23:35.541Z,97.30
2018-05-07T01:26:04.398Z,97.60
2018-05-07T01:28:32.621Z,97.50
2018-05-07T01:31:01.558Z,97.60
2018-05-07T01:33:29.686Z,97.60
2018-05-07T01:35:58.665Z,97.80
2018-05-07T01:38:28.106Z,98.10
2018-05-07T01:40:56.206Z,98.00
2018-05-07T01:43:26.757Z,98.10
2018-05-07T01:45:54.958Z,98.10
2018-05-07T01:48:23.837Z,98.00
2018-05-07T01:50:53.290Z,98.00
2018-05-07T01:53:21.403Z,97.90
2018-05-07T01:55:50.289Z,98.20
2018-05-07T01:58:18.400Z,98.20
2018-05-07T02:00:46.658Z,98.30
2018-05-07T02:03:15.564Z,98.70
2018-05-07T02:05:43.742Z,98.70
2018-05-07T02:08:11.869Z,98.80
2018-05-07T02:10:39.995Z,98.70
2018-05-07T02:13:08.121Z,98.70
2018-05-07T02:15:36.539Z,98.70
2018-05-07T02:18:04.639Z,98.60
2018-05-07T02:20:32.752Z,98.60
2018-05-07T02:23:00.895Z,98.50
2018-05-07T02:25:29.020Z,98.60
2018-05-07T02:27:57.890Z,98.60
2018-05-07T02:30:26.738Z,98.70
2018-05-07T02:32:54.838Z,98.70
2018-05-07T02:35:22.985Z,98.80
2018-05-07T02:37:51.090Z,98.70
2018-05-07T02:40:19.971Z,99.00
2018-05-07T02:42:48.128Z,98.90
2018-05-07T02:45:16.309Z,98.90
2018-05-07T02:47:44.415Z,98.80
2018-05-07T02:50:13.301Z,99.20
2018-05-07T02:52:41.418Z,99.20
2018-05-07T02:55:10.054Z,99.20
2018-05-07T02:57:38.951Z,99.10
2018-05-07T03:00:07.957Z,99.30
2018-05-07T03:02:36.182Z,99.30
2018-05-07T03:05:04.294Z,99.30
2018-05-07T03:07:35.470Z,99.30
2018-05-07T03:10:03.589Z,99.20
2018-05-07T03:12:31.714Z,99.60
2018-05-07T03:14:59.939Z,99.60
2018-05-07T03:17:28.308Z,99.60
2018-05-07T03:19:57.934Z,99.90
2018-05-07T03:22:26.851Z,99.90
2018-05-07T03:24:55.123Z,99.90
2018-05-07T03:27:24.080Z,99.90
2018-05-07T03:29:52.325Z,99.90
2018-05-07T03:32:20.627Z,99.90
2018-05-07T03:34:49.245Z,99.90
2018-05-07T03:37:18.113Z,99.90
2018-05-07T03:39:47.633Z,99.90
2018-05-07T03:42:16.529Z,99.90
2018-05-07T03:44:45.443Z,99.90
2018-05-07T03:47:14.410Z,99.90
2018-05-07T03:49:42.609Z,99.90
2018-05-07T03:52:10.777Z,99.90
2018-05-07T03:54:39.356Z,99.90
2018-05-07T03:57:08.218Z,99.90
2018-05-07T03:59:36.921Z,99.90
2018-05-07T04:02:05.272Z,99.90
2018-05-07T04:04:33.413Z,99.90
2018-05-07T04:07:02.984Z,99.90
2018-05-07T04:09:31.947Z,99.90
2018-05-07T04:12:00.084Z,99.90
2018-05-07T04:14:28.204Z,99.90
2018-05-07T04:17:08.558Z,99.90
2018-05-07T04:19:48.638Z,99.90
2018-05-07T04:22:29.465Z,99.90
2018-05-07T04:24:57.764Z,99.90
2018-05-07T04:27:26.030Z,99.90
2018-05-07T04:29:54.223Z,99.90
2018-05-07T04:32:25.183Z,99.90
2018-05-07T04:34:53.326Z,99.90
2018-05-07T04:37:21.443Z,99.90
2018-05-07T04:39:49.544Z,99.90
2018-05-07T04:42:17.651Z,99.90
2018-05-07T04:44:46.534Z,99.90
2018-05-07T04:47:14.735Z,99.90
2018-05-07T04:49:43.591Z,99.90
2018-05-07T04:52:13.429Z,99.90
2018-05-07T04:54:42.803Z,99.90
2018-05-07T04:57:10.931Z,99.90
2018-05-07T04:59:39.640Z,99.90
2018-05-07T05:02:08.539Z,99.90
2018-05-07T05:04:37.054Z,99.90
2018-05-07T05:07:06.017Z,99.90
2018-05-07T05:09:34.887Z,99.90
2018-05-07T05:12:03.024Z,99.90
2018-05-07T05:14:31.884Z,99.90
2018-05-07T05:17:00.002Z,99.90
2018-05-07T05:19:28.794Z,99.90
2018-05-07T05:21:57.461Z,99.90
2018-05-07T05:24:26.326Z,99.90
2018-05-07T05:26:55.966Z,99.90
2018-05-07T05:29:25.167Z,99.90
2018-05-07T05:31:54.026Z,99.90
2018-05-07T05:34:22.148Z,99.90
2018-05-07T05:36:50.876Z,99.90
2018-05-07T05:39:19.007Z,99.70
2018-05-07T05:41:47.131Z,99.30
2018-05-07T05:44:16.670Z,98.80
2018-05-07T05:46:45.539Z,98.70
2018-05-07T05:49:14.451Z,98.80
2018-05-07T05:51:42.554Z,98.80
2018-05-07T05:54:11.041Z,98.60
2018-05-07T05:56:39.283Z,98.30
2018-05-07T05:59:07.546Z,98.40
2018-05-07T06:01:36.588Z,98.20
2018-05-07T06:04:04.855Z,98.20
2018-05-07T06:06:33.000Z,98.00
2018-05-07T06:09:01.206Z,98.00
2018-05-07T06:11:29.402Z,97.80
2018-05-07T06:13:57.671Z,97.90
2018-05-07T06:16:25.788Z,97.30
2018-05-07T06:18:54.668Z,96.00
2018-05-07T06:21:22.797Z,96.00
2018-05-07T06:23:50.904Z,96.10
2018-05-07T06:26:19.827Z,95.60
2018-05-07T06:28:47.966Z,95.50
2018-05-07T06:31:16.834Z,95.20
2018-05-07T06:33:45.065Z,94.70
2018-05-07T06:36:13.431Z,94.70
2018-05-07T06:38:42.294Z,94.80
2018-05-07T06:41:11.252Z,94.80
2018-05-07T06:43:39.354Z,94.80
2018-05-07T06:46:07.473Z,94.80
2018-05-07T06:48:35.606Z,94.20
2018-05-07T06:51:03.710Z,94.30
2018-05-07T06:53:31.803Z,94.20
2018-05-07T06:56:00.101Z,94.20
2018-05-07T06:58:28.201Z,93.80
2018-05-07T07:00:56.902Z,93.80
2018-05-07T07:03:25.995Z,93.60
2018-05-07T07:05:55.409Z,93.70
2018-05-07T07:08:23.777Z,93.30
2018-05-07T07:10:52.652Z,93.40
2018-05-07T07:13:21.620Z,93.20
2018-05-07T07:15:49.955Z,93.20
2018-05-07T07:18:18.837Z,92.70
2018-05-07T07:20:48.006Z,92.60
2018-05-07T07:23:16.712Z,92.50
2018-05-07T07:25:44.827Z,92.70
2018-05-07T07:28:13.258Z,92.10
2018-05-07T07:30:42.049Z,91.50
2018-05-07T07:33:10.164Z,91.50
2018-05-07T07:35:39.073Z,92.10
2018-05-07T07:38:07.178Z,91.60
2018-05-07T07:40:35.473Z,91.90
2018-05-07T07:43:04.605Z,91.70
2018-05-07T07:45:32.723Z,91.70
2018-05-07T07:48:00.907Z,91.50
2018-05-07T07:50:29.943Z,90.80
2018-05-07T07:52:58.568Z,90.80
2018-05-07T07:55:26.707Z,90.50
2018-05-07T07:57:54.997Z,91.30
2018-05-07T08:00:23.310Z,90.90
2018-05-07T08:02:52.088Z,90.80
2018-05-07T08:05:20.239Z,90.50
2018-05-07T08:07:48.598Z,90.50
2018-05-07T08:10:16.812Z,90.30
2018-05-07T08:12:46.515Z,90.40
2018-05-07T08:15:16.124Z,89.30
2018-05-07T08:17:44.331Z,89.20
2018-05-07T08:20:13.182Z,89.10
2018-05-07T08:22:42.090Z,87.90
2018-05-07T08:25:10.799Z,87.90
2018-05-07T08:27:40.087Z,86.40
2018-05-07T08:30:09.197Z,86.30
2018-05-07T08:32:37.613Z,86.30
2018-05-07T08:35:05.711Z,84.70
2018-05-07T08:37:35.455Z,82.70
2018-05-07T08:40:04.651Z,84.50
2018-05-07T08:42:33.523Z,82.80
2018-05-07T08:45:01.629Z,82.80
2018-05-07T08:47:30.063Z,85.00
2018-05-07T08:49:58.171Z,84.10
2018-05-07T08:52:26.283Z,82.90
2018-05-07T08:54:54.496Z,82.40
2018-05-07T08:57:22.696Z,81.70
2018-05-07T08:59:51.575Z,79.90
2018-05-07T09:02:19.675Z,79.80
2018-05-07T09:04:47.808Z,79.50
2018-05-07T09:07:15.928Z,80.30
2018-05-07T09:09:44.033Z,78.20
2018-05-07T09:12:12.878Z,78.60
2018-05-07T09:14:40.984Z,76.90
2018-05-07T09:17:09.173Z,78.70
2018-05-07T09:19:38.155Z,77.60
2018-05-07T09:22:06.300Z,77.40
2018-05-07T09:24:34.397Z,78.30
2018-05-07T09:27:03.317Z,78.50
2018-05-07T09:29:31.583Z,78.40
2018-05-07T09:32:00.177Z,77.50
2018-05-07T09:34:28.289Z,76.10
2018-05-07T09:36:57.322Z,76.30
2018-05-07T09:39:25.784Z,75.00
2018-05-07T09:41:54.172Z,74.00
2018-05-07T09:44:22.813Z,75.20
2018-05-07T09:46:51.026Z,74.50
2018-05-07T09:49:19.131Z,74.60
2018-05-07T09:51:47.239Z,75.10
2018-05-07T09:54:15.368Z,74.60
2018-05-07T09:56:54.551Z,74.40
2018-05-07T09:59:24.388Z,73.80
2018-05-07T10:01:52.789Z,71.90
2018-05-07T10:04:21.843Z,69.10
2018-05-07T10:06:49.936Z,69.00
2018-05-07T10:09:18.576Z,69.30
2018-05-07T10:11:46.677Z,65.90
2018-05-07T10:14:17.053Z,65.60
2018-05-07T10:16:45.951Z,65.70
2018-05-07T10:19:14.831Z,64.60
2018-05-07T10:21:43.760Z,66.30
2018-05-07T10:24:11.990Z,66.30
2018-05-07T10:26:40.058Z,65.80
2018-05-07T10:29:08.966Z,58.70
2018-05-07T10:31:37.857Z,59.40
2018-05-07T10:34:06.260Z,59.30
2018-05-07T10:36:34.407Z,57.90
2018-05-07T10:39:02.515Z,58.60
2018-05-07T10:41:30.617Z,61.50
2018-05-07T10:43:58.883Z,59.10
2018-05-07T10:46:27.021Z,57.70
2018-05-07T10:48:55.168Z,57.90
2018-05-07T10:51:23.281Z,58.80
2018-05-07T10:53:51.459Z,58.60
2018-05-07T10:56:19.922Z,57.90
2018-05-07T10:58:49.262Z,55.70
2018-05-07T11:01:17.477Z,55.60
2018-05-07T11:03:45.598Z,55.20
2018-05-07T11:06:13.785Z,55.70
2018-05-07T11:08:42.465Z,55.30
2018-05-07T11:11:10.733Z,54.80
2018-05-07T11:13:39.267Z,53.70
2018-05-07T11:16:07.371Z,50.30
2018-05-07T11:18:36.900Z,52.40
2018-05-07T11:21:05.022Z,52.40
2018-05-07T11:23:33.133Z,53.00
2018-05-07T11:26:02.111Z,50.50
2018-05-07T11:28:30.984Z,50.70
2018-05-07T11:30:59.856Z,50.50
2018-05-07T11:33:29.159Z,49.80
2018-05-07T11:35:57.278Z,49.80
2018-05-07T11:38:25.396Z,49.80
2018-05-07T11:40:54.146Z,49.10
2018-05-07T11:43:22.421Z,49.60
2018-05-07T11:45:50.594Z,49.50
2018-05-07T11:48:18.720Z,50.30
2018-05-07T11:50:47.190Z,49.40
2018-05-07T11:53:15.375Z,50.20
2018-05-07T11:55:43.487Z,47.60
2018-05-07T11:58:11.670Z,47.90
2018-05-07T12:00:39.801Z,47.10
2018-05-07T12:03:08.672Z,47.70
2018-05-07T12:05:36.837Z,47.60
2018-05-07T12:08:05.233Z,46.50
2018-05-07T12:10:33.363Z,48.00
2018-05-07T12:13:01.497Z,46.30
2018-05-07T12:15:29.604Z,45.10
2018-05-07T12:17:57.744Z,45.70
2018-05-07T12:20:26.654Z,45.50
2018-05-07T12:22:55.683Z,44.90
2018-05-07T12:25:23.793Z,44.90
2018-05-07T12:27:52.778Z,46.50
2018-05-07T12:30:21.595Z,46.30
2018-05-07T12:32:50.496Z,45.40
2018-05-07T12:35:19.487Z,46.00
2018-05-07T12:37:47.721Z,46.00
2018-05-07T12:40:15.771Z,44.40
2018-05-07T12:42:44.050Z,44.70
2018-05-07T12:45:12.188Z,45.40
2018-05-07T12:47:40.320Z,45.90
2018-05-07T12:50:08.927Z,45.60
2018-05-07T12:52:37.376Z,45.30
2018-05-07T12:55:05.447Z,44.70
2018-05-07T12:57:33.601Z,45.70
2018-05-07T13:00:02.134Z,44.40
2018-05-07T13:02:31.631Z,45.80
2018-05-07T13:05:00.546Z,42.60
2018-05-07T13:07:28.659Z,42.90
2018-05-07T13:09:56.998Z,43.90
2018-05-07T13:12:25.772Z,44.10
2018-05-07T13:14:54.636Z,43.50
2018-05-07T13:17:22.813Z,43.40
2018-05-07T13:19:51.796Z,44.20
2018-05-07T13:22:20.676Z,44.30
2018-05-07T13:24:48.794Z,44.00
2018-05-07T13:27:17.977Z,44.10
2018-05-07T13:29:46.435Z,44.00
2018-05-07T13:32:14.668Z,44.20
2018-05-07T13:34:42.975Z,43.60
2018-05-07T13:37:11.094Z,43.00
2018-05-07T13:39:40.126Z,44.90
2018-05-07T13:42:08.302Z,44.90
2018-05-07T13:44:36.525Z,45.70
2018-05-07T13:47:06.147Z,43.30
2018-05-07T13:49:34.309Z,43.50
2018-05-07T13:52:03.891Z,43.20
2018-05-07T13:54:32.620Z,43.20
2018-05-07T13:57:00.711Z,43.20
2018-05-07T13:59:28.858Z,44.20
2018-05-07T14:01:57.807Z,42.40
2018-05-07T14:04:27.507Z,42.30
2018-05-07T14:06:56.240Z,43.10
2018-05-07T14:09:25.282Z,42.30
2018-05-07T14:11:53.430Z,42.20
2018-05-07T14:14:22.482Z,41.10
2018-05-07T14:16:50.919Z,40.80
2018-05-07T14:19:19.475Z,40.60
2018-05-07T14:21:48.739Z,40.80
2018-05-07T14:24:17.676Z,41.20
2018-05-07T14:26:46.718Z,41.80
2018-05-07T14:29:14.835Z,41.80
2018-05-07T14:31:43.057Z,42.10
2018-05-07T14:34:11.156Z,42.00
2018-05-07T14:36:39.355Z,41.70
2018-05-07T14:39:08.226Z,41.40
2018-05-07T14:41:36.561Z,41.40
2018-05-07T14:44:04.688Z,41.50
2018-05-07T14:46:33.572Z,39.70
2018-05-07T14:49:02.456Z,39.90
2018-05-07T14:51:31.356Z,39.80
2018-05-07T14:53:59.514Z,39.20
2018-05-07T14:56:27.677Z,38.70
2018-05-07T14:58:56.247Z,39.50
2018-05-07T15:01:24.445Z,39.30
2018-05-07T15:03:53.256Z,37.20
2018-05-07T15:06:22.422Z,36.90
2018-05-07T15:08:50.612Z,36.90
2018-05-07T15:11:18.739Z,36.10
2018-05-07T15:13:50.867Z,33.40
2018-05-07T15:16:19.740Z,31.10
2018-05-07T15:18:47.861Z,31.10
2018-05-07T15:21:15.971Z,30.50
2018-05-07T15:23:44.121Z,30.20
2018-05-07T15:26:12.228Z,28.50
2018-05-07T15:28:41.190Z,28.20
2018-05-07T15:31:09.519Z,28.80
2018-05-07T15:33:38.399Z,29.60
2018-05-07T15:36:06.559Z,29.10
2018-05-07T15:38:34.678Z,29.10
2018-05-07T15:41:03.150Z,27.40
2018-05-07T15:43:32.258Z,28.00
2018-05-07T15:46:00.443Z,27.50
2018-05-07T15:48:29.287Z,26.20
2018-05-07T15:50:58.161Z,26.90
2018-05-07T15:53:27.091Z,25.60
2018-05-07T15:55:55.304Z,25.60
2018-05-07T15:58:23.357Z,26.80
2018-05-07T16:00:51.570Z,26.30
2018-05-07T16:03:19.752Z,26.50
2018-05-07T16:05:47.793Z,26.50
2018-05-07T16:08:15.893Z,26.40
2018-05-07T16:10:44.026Z,25.70
2018-05-07T16:13:12.159Z,25.40
2018-05-07T16:15:41.069Z,26.00
2018-05-07T16:18:09.320Z,26.00
2018-05-07T16:20:38.260Z,26.20
2018-05-07T16:23:06.370Z,26.20
2018-05-07T16:25:34.482Z,25.80
2018-05-07T16:28:02.794Z,25.70
2018-05-07T16:30:32.717Z,25.90
2018-05-07T16:33:01.302Z,25.90
2018-05-07T16:35:29.442Z,26.00
2018-05-07T16:37:57.578Z,25.40
2018-05-07T16:40:26.528Z,25.60
2018-05-07T16:42:54.757Z,25.60
2018-05-07T16:45:23.616Z,25.50
2018-05-07T16:47:53.338Z,25.50
2018-05-07T16:50:21.583Z,25.40
2018-05-07T16:52:49.733Z,25.60
2018-05-07T16:55:17.885Z,25.20
2018-05-07T16:57:46.881Z,25.00
2018-05-07T17:00:14.979Z,25.00
2018-05-07T17:02:43.321Z,25.00
2018-05-07T17:05:12.201Z,25.30
2018-05-07T17:07:41.411Z,25.90
2018-05-07T17:10:09.510Z,25.90
2018-05-07T17:12:37.815Z,25.30
2018-05-07T17:15:06.119Z,25.20
2018-05-07T17:17:34.249Z,25.50
2018-05-07T17:20:02.383Z,25.40
2018-05-07T17:22:31.255Z,26.30
2018-05-07T17:25:00.243Z,26.30
2018-05-07T17:27:30.023Z,26.50
2018-05-07T17:29:58.309Z,26.40
2018-05-07T17:32:26.554Z,26.80
2018-05-07T17:34:54.953Z,27.10
2018-05-07T17:37:23.296Z,27.20
2018-05-07T17:39:52.260Z,27.10
2018-05-07T17:42:20.651Z,27.10
2018-05-07T17:45:01.618Z,27.60
2018-05-07T17:47:42.411Z,27.90
2018-05-07T17:50:10.982Z,27.90
2018-05-07T17:52:39.970Z,30.40
2018-05-07T17:55:08.863Z,31.60
2018-05-07T17:57:37.756Z,32.80
2018-05-07T18:00:08.485Z,33.40
2018-05-07T18:02:37.386Z,35.60
2018-05-07T18:05:06.339Z,37.00
2018-05-07T18:07:34.440Z,37.00
2018-05-07T18:10:03.442Z,38.40
2018-05-07T18:12:31.806Z,38.40
2018-05-07T18:15:00.823Z,40.30
2018-05-07T18:17:30.281Z,40.90
2018-05-07T18:19:59.511Z,40.80
2018-05-07T18:22:28.412Z,42.10
2018-05-07T18:24:57.369Z,42.60
2018-05-07T18:27:25.479Z,42.60
2018-05-07T18:29:54.550Z,44.50
2018-05-07T18:32:23.280Z,44.50
2018-05-07T18:34:52.803Z,46.60
2018-05-07T18:37:21.203Z,46.20
2018-05-07T18:39:49.326Z,46.90
2018-05-07T18:42:17.652Z,47.20
2018-05-07T18:44:45.924Z,47.60
2018-05-07T18:47:14.043Z,48.20
2018-05-07T18:49:43.516Z,48.60
2018-05-07T18:52:12.918Z,49.10
2018-05-07T18:54:41.033Z,49.10
2018-05-07T18:57:10.638Z,50.90
2018-05-07T18:59:39.013Z,51.70
2018-05-07T19:02:08.835Z,52.50
2018-05-07T19:04:36.931Z,52.40
2018-05-07T19:07:05.290Z,53.20
2018-05-07T19:09:33.817Z,53.20
2018-05-07T19:12:02.514Z,54.10
2018-05-07T19:14:30.615Z,54.30
2018-05-07T19:16:58.780Z,55.00
2018-05-07T19:19:29.120Z,57.00
2018-05-07T19:21:57.856Z,56.90
2018-05-07T19:24:27.405Z,56.80
2018-05-07T19:26:56.334Z,59.20
2018-05-07T19:29:24.503Z,59.10
2018-05-07T19:31:52.948Z,59.70
2018-05-07T19:34:22.686Z,61.90
2018-05-07T19:36:50.821Z,61.80
2018-05-07T19:39:19.694Z,62.80
2018-05-07T19:41:47.801Z,62.70
2018-05-07T19:44:15.936Z,61.90
2018-05-07T19:46:44.101Z,63.90
2018-05-07T19:49:12.169Z,65.60
2018-05-07T19:51:40.291Z,66.90
2018-05-07T19:54:09.159Z,66.80
2018-05-07T19:56:38.717Z,66.50
2018-05-07T19:59:06.961Z,66.40
2018-05-07T20:01:35.182Z,66.80
2018-05-07T20:04:03.295Z,67.90
2018-05-07T20:06:33.092Z,69.80
2018-05-07T20:09:01.969Z,71.10
2018-05-07T20:11:30.069Z,71.10
2018-05-07T20:13:58.935Z,73.90
2018-05-07T20:16:27.144Z,73.80
2018-05-07T20:18:57.608Z,75.50
2018-05-07T20:21:25.715Z,75.40
2018-05-07T20:23:53.846Z,75.80
2018-05-07T20:26:21.968Z,76.10
2018-05-07T20:28:51.056Z,78.00
2018-05-07T20:31:19.160Z,78.00
2018-05-07T20:33:47.293Z,79.60
2018-05-07T20:36:15.495Z,80.10
2018-05-07T20:38:43.680Z,81.40
2018-05-07T20:41:12.612Z,82.50
2018-05-07T20:43:41.251Z,83.20
2018-05-07T20:46:10.116Z,85.20
2018-05-07T20:48:38.243Z,85.20
2018-05-07T20:51:06.521Z,86.00
2018-05-07T20:53:34.637Z,86.60
2018-05-07T20:56:03.695Z,86.90
2018-05-07T20:58:31.880Z,86.90
2018-05-07T21:01:00.268Z,87.20
2018-05-07T21:03:28.382Z,86.80
2018-05-07T21:05:57.597Z,89.70
2018-05-07T21:08:25.977Z,89.70
2018-05-07T21:10:54.844Z,90.20
2018-05-07T21:13:24.067Z,90.50
2018-05-07T21:15:52.169Z,90.40
2018-05-07T21:18:20.281Z,90.90
2018-05-07T21:20:48.821Z,91.10
2018-05-07T21:23:16.947Z,91.60
2018-05-07T21:25:45.932Z,92.20
2018-05-07T21:28:14.969Z,92.90
2018-05-07T21:30:43.260Z,92.60
2018-05-07T21:33:11.359Z,92.70
2018-05-07T21:35:40.995Z,92.90
2018-05-07T21:38:09.381Z,93.30
2018-05-07T21:40:39.600Z,93.40
2018-05-07T21:43:07.801Z,93.90
2018-05-07T21:45:36.247Z,94.20
2018-05-07T21:48:05.097Z,94.40
2018-05-07T21:50:33.236Z,94.40
2018-05-07T21:53:01.346Z,94.40
2018-05-07T21:55:29.445Z,94.40
2018-05-07T21:57:58.327Z,95.50
2018-05-07T22:00:26.796Z,95.40
2018-05-07T22:02:55.013Z,95.70
2018-05-07T22:05:24.640Z,95.70
2018-05-07T22:07:53.844Z,95.90
2018-05-07T22:10:23.496Z,96.20
2018-05-07T22:12:52.034Z,96.30
2018-05-07T22:15:22.464Z,96.80
2018-05-07T22:17:50.943Z,96.80
2018-05-07T22:20:19.035Z,96.90
2018-05-07T22:22:47.139Z,97.60
2018-05-07T22:25:16.020Z,97.70
2018-05-07T22:27:44.259Z,97.70
2018-05-07T22:30:12.915Z,97.70
2018-05-07T22:32:41.068Z,97.70
2018-05-07T22:35:09.479Z,97.60
2018-05-07T22:37:37.569Z,97.80
2018-05-07T22:40:06.533Z,98.00
2018-05-07T22:42:35.021Z,98.00
2018-05-07T22:45:03.145Z,97.90
2018-05-07T22:47:31.282Z,98.30
2018-05-07T22:49:59.765Z,98.40
2018-05-07T22:52:29.188Z,98.50
2018-05-07T22:55:03.143Z,98.60
2018-05-07T22:57:33.635Z,98.70
2018-05-07T23:00:01.875Z,98.70
2018-05-07T23:02:29.975Z,98.70
2018-05-07T23:04:58.308Z,98.80
2018-05-07T23:07:27.026Z,99.10
2018-05-07T23:09:55.130Z,99.20
2018-05-07T23:12:23.257Z,99.20
2018-05-07T23:14:51.361Z,99.50
2018-05-07T23:17:19.483Z,99.40
2018-05-07T23:19:47.937Z,99.60
2018-05-07T23:22:16.115Z,99.80
2018-05-07T23:24:45.599Z,99.70
2018-05-07T23:27:13.709Z,99.90
2018-05-07T23:29:41.836Z,99.90
2018-05-07T23:32:10.471Z,99.90
2018-05-07T23:34:39.452Z,99.90
2018-05-07T23:37:09.561Z,99.90
2018-05-07T23:39:38.491Z,99.90
2018-05-07T23:42:06.595Z,99.90
2018-05-07T23:44:34.704Z,99.90
2018-05-07T23:47:03.644Z,99.90
2018-05-07T23:49:31.922Z,99.90
2018-05-07T23:52:00.147Z,99.90
2018-05-07T23:54:28.274Z,99.90
2018-05-07T23:56:56.653Z,99.90
2018-05-07T23:59:24.765Z,99.90
